sensor_id;sensor_type;location;lat;lon;timestamp;temperature;humidity
16666;DHT22;8446;50.998;6.250;2023-04-12T00:01:19;9.70;99.90
16666;DHT22;8446;50.998;6.250;2023-04-12T00:03:45;9.70;99.90
16666;DHT22;8446;50.998;6.250;2023-04-12T00:06:15;9.60;99.90
16666;DHT22;8446;50.998;6.250;2023-04-12T00:08:41;9.60;99.90
16666;DHT22;8446;50.998;6.250;2023-04-12T00:11:12;9.50;99.90
16666;DHT22;8446;50.998;6.250;2023-04-12T00:13:39;9.50;99.90
16666;DHT22;8446;50.998;6.250;2023-04-12T00:16:07;9.40;99.90
16666;DHT22;8446;50.998;6.250;2023-04-12T00:18:34;9.40;99.90
16666;DHT22;8446;50.998;6.250;2023-04-12T00:21:01;9.30;99.90
16666;DHT22;8446;50.998;6.250;2023-04-12T00:23:27;9.30;99.90
16666;DHT22;8446;50.998;6.250;2023-04-12T00:25:55;9.20;99.90
16666;DHT22;8446;50.998;6.250;2023-04-12T00:28:23;9.20;99.90
16666;DHT22;8446;50.998;6.250;2023-04-12T00:30:50;9.20;99.90
16666;DHT22;8446;50.998;6.250;2023-04-12T00:33:17;9.20;99.90
16666;DHT22;8446;50.998;6.250;2023-04-12T00:35:44;9.20;99.90
16666;DHT22;8446;50.998;6.250;2023-04-12T00:38:11;9.10;99.90
16666;DHT22;8446;50.998;6.250;2023-04-12T00:40:40;9.10;99.90
16666;DHT22;8446;50.998;6.250;2023-04-12T00:43:07;9.10;99.90
16666;DHT22;8446;50.998;6.250;2023-04-12T00:45:36;9.10;99.90
16666;DHT22;8446;50.998;6.250;2023-04-12T00:48:04;9.10;99.90
16666;DHT22;8446;50.998;6.250;2023-04-12T00:50:31;9.00;99.90
16666;DHT22;8446;50.998;6.250;2023-04-12T00:52:58;9.00;99.90
16666;DHT22;8446;50.998;6.250;2023-04-12T00:55:25;8.90;99.90
16666;DHT22;8446;50.998;6.250;2023-04-12T00:57:52;8.90;99.90
16666;DHT22;8446;50.998;6.250;2023-04-12T01:00:18;8.90;99.90
16666;DHT22;8446;50.998;6.250;2023-04-12T01:02:47;8.90;99.90
16666;DHT22;8446;50.998;6.250;2023-04-12T01:05:16;8.90;99.90
16666;DHT22;8446;50.998;6.250;2023-04-12T01:07:50;8.90;99.90
16666;DHT22;8446;50.998;6.250;2023-04-12T01:10:26;8.90;99.90
16666;DHT22;8446;50.998;6.250;2023-04-12T01:13:03;8.90;99.90
16666;DHT22;8446;50.998;6.250;2023-04-12T01:15:33;9.00;99.90
16666;DHT22;8446;50.998;6.250;2023-04-12T01:18:07;9.00;99.90
16666;DHT22;8446;50.998;6.250;2023-04-12T01:20:36;9.00;99.90
16666;DHT22;8446;50.998;6.250;2023-04-12T01:23:29;9.00;99.90
16666;DHT22;8446;50.998;6.250;2023-04-12T01:26:11;9.00;99.90
16666;DHT22;8446;50.998;6.250;2023-04-12T01:28:44;9.10;99.90
16666;DHT22;8446;50.998;6.250;2023-04-12T01:31:12;9.10;99.90
16666;DHT22;8446;50.998;6.250;2023-04-12T01:33:42;9.10;99.90
16666;DHT22;8446;50.998;6.250;2023-04-12T01:36:12;9.10;99.90
16666;DHT22;8446;50.998;6.250;2023-04-12T01:38:40;9.10;99.90
16666;DHT22;8446;50.998;6.250;2023-04-12T01:41:07;9.10;99.90
16666;DHT22;8446;50.998;6.250;2023-04-12T01:43:39;9.10;99.90
16666;DHT22;8446;50.998;6.250;2023-04-12T01:46:08;9.10;99.90
16666;DHT22;8446;50.998;6.250;2023-04-12T01:48:36;9.10;99.90
16666;DHT22;8446;50.998;6.250;2023-04-12T01:51:05;9.10;99.90
16666;DHT22;8446;50.998;6.250;2023-04-12T01:53:38;9.10;99.90
16666;DHT22;8446;50.998;6.250;2023-04-12T01:56:09;9.10;99.90
16666;DHT22;8446;50.998;6.250;2023-04-12T01:58:38;9.10;99.90
16666;DHT22;8446;50.998;6.250;2023-04-12T02:01:07;9.10;99.90
16666;DHT22;8446;50.998;6.250;2023-04-12T02:03:35;9.10;99.90
16666;DHT22;8446;50.998;6.250;2023-04-12T02:06:04;9.20;99.90
16666;DHT22;8446;50.998;6.250;2023-04-12T02:08:32;9.20;99.90
16666;DHT22;8446;50.998;6.250;2023-04-12T02:10:59;9.10;99.90
16666;DHT22;8446;50.998;6.250;2023-04-12T02:13:26;9.20;99.90
16666;DHT22;8446;50.998;6.250;2023-04-12T02:15:53;9.20;99.90
16666;DHT22;8446;50.998;6.250;2023-04-12T02:18:21;9.10;99.90
16666;DHT22;8446;50.998;6.250;2023-04-12T02:20:48;9.20;99.90
16666;DHT22;8446;50.998;6.250;2023-04-12T02:23:15;9.20;99.90
16666;DHT22;8446;50.998;6.250;2023-04-12T02:25:42;9.20;99.90
16666;DHT22;8446;50.998;6.250;2023-04-12T02:28:11;9.10;99.90
16666;DHT22;8446;50.998;6.250;2023-04-12T02:30:37;9.20;99.90
16666;DHT22;8446;50.998;6.250;2023-04-12T02:33:06;9.10;99.90
16666;DHT22;8446;50.998;6.250;2023-04-12T02:35:35;9.10;99.90
16666;DHT22;8446;50.998;6.250;2023-04-12T02:38:02;9.10;99.90
16666;DHT22;8446;50.998;6.250;2023-04-12T02:40:32;9.10;99.90
16666;DHT22;8446;50.998;6.250;2023-04-12T02:43:00;9.10;99.90
16666;DHT22;8446;50.998;6.250;2023-04-12T02:45:26;9.10;99.90
16666;DHT22;8446;50.998;6.250;2023-04-12T02:47:53;9.10;99.90
16666;DHT22;8446;50.998;6.250;2023-04-12T02:50:20;9.20;99.90
16666;DHT22;8446;50.998;6.250;2023-04-12T02:52:48;9.20;99.90
16666;DHT22;8446;50.998;6.250;2023-04-12T02:55:15;9.20;99.90
16666;DHT22;8446;50.998;6.250;2023-04-12T02:57:43;9.20;99.90
16666;DHT22;8446;50.998;6.250;2023-04-12T03:00:11;9.20;99.90
16666;DHT22;8446;50.998;6.250;2023-04-12T03:02:38;9.20;99.90
16666;DHT22;8446;50.998;6.250;2023-04-12T03:05:06;9.20;99.90
16666;DHT22;8446;50.998;6.250;2023-04-12T03:07:33;9.10;99.90
16666;DHT22;8446;50.998;6.250;2023-04-12T03:10:01;9.20;99.90
16666;DHT22;8446;50.998;6.250;2023-04-12T03:12:30;9.20;99.90
16666;DHT22;8446;50.998;6.250;2023-04-12T03:14:57;9.20;99.90
16666;DHT22;8446;50.998;6.250;2023-04-12T03:17:24;9.20;99.90
16666;DHT22;8446;50.998;6.250;2023-04-12T03:19:50;9.20;99.90
16666;DHT22;8446;50.998;6.250;2023-04-12T03:22:17;9.20;99.90
16666;DHT22;8446;50.998;6.250;2023-04-12T03:24:44;9.20;99.90
16666;DHT22;8446;50.998;6.250;2023-04-12T03:27:12;9.20;99.90
16666;DHT22;8446;50.998;6.250;2023-04-12T03:29:39;9.20;99.90
16666;DHT22;8446;50.998;6.250;2023-04-12T03:32:06;9.20;99.90
16666;DHT22;8446;50.998;6.250;2023-04-12T03:34:33;9.20;99.90
16666;DHT22;8446;50.998;6.250;2023-04-12T03:37:01;9.20;99.90
16666;DHT22;8446;50.998;6.250;2023-04-12T03:39:27;9.20;99.90
16666;DHT22;8446;50.998;6.250;2023-04-12T03:41:54;9.20;99.90
16666;DHT22;8446;50.998;6.250;2023-04-12T03:44:22;9.10;99.90
16666;DHT22;8446;50.998;6.250;2023-04-12T03:46:50;9.10;99.90
16666;DHT22;8446;50.998;6.250;2023-04-12T03:49:17;9.10;99.90
16666;DHT22;8446;50.998;6.250;2023-04-12T03:51:44;9.10;99.90
16666;DHT22;8446;50.998;6.250;2023-04-12T03:54:11;9.00;99.90
16666;DHT22;8446;50.998;6.250;2023-04-12T03:56:38;9.00;99.90
16666;DHT22;8446;50.998;6.250;2023-04-12T03:59:05;8.90;99.90
16666;DHT22;8446;50.998;6.250;2023-04-12T04:01:34;8.90;99.90
16666;DHT22;8446;50.998;6.250;2023-04-12T04:04:01;8.90;99.90
16666;DHT22;8446;50.998;6.250;2023-04-12T04:06:28;8.80;99.90
16666;DHT22;8446;50.998;6.250;2023-04-12T04:08:55;8.70;99.90
16666;DHT22;8446;50.998;6.250;2023-04-12T04:11:22;8.70;99.90
16666;DHT22;8446;50.998;6.250;2023-04-12T04:13:50;8.60;99.90
16666;DHT22;8446;50.998;6.250;2023-04-12T04:16:16;8.60;99.90
16666;DHT22;8446;50.998;6.250;2023-04-12T04:18:45;8.60;99.90
16666;DHT22;8446;50.998;6.250;2023-04-12T04:21:12;8.60;99.90
16666;DHT22;8446;50.998;6.250;2023-04-12T04:23:40;8.50;99.90
16666;DHT22;8446;50.998;6.250;2023-04-12T04:26:10;8.50;99.90
16666;DHT22;8446;50.998;6.250;2023-04-12T04:28:37;8.50;99.90
16666;DHT22;8446;50.998;6.250;2023-04-12T04:31:04;8.50;99.90
16666;DHT22;8446;50.998;6.250;2023-04-12T04:33:31;8.50;99.90
16666;DHT22;8446;50.998;6.250;2023-04-12T04:36:00;8.40;99.90
16666;DHT22;8446;50.998;6.250;2023-04-12T04:38:28;8.40;99.90
16666;DHT22;8446;50.998;6.250;2023-04-12T04:40:57;8.30;99.90
16666;DHT22;8446;50.998;6.250;2023-04-12T04:43:24;8.30;99.90
16666;DHT22;8446;50.998;6.250;2023-04-12T04:45:54;8.40;99.90
16666;DHT22;8446;50.998;6.250;2023-04-12T04:48:21;8.30;99.90
16666;DHT22;8446;50.998;6.250;2023-04-12T04:50:48;8.30;99.90
16666;DHT22;8446;50.998;6.250;2023-04-12T04:53:18;8.30;99.90
16666;DHT22;8446;50.998;6.250;2023-04-12T04:55:45;8.30;99.90
16666;DHT22;8446;50.998;6.250;2023-04-12T04:58:13;8.30;99.90
16666;DHT22;8446;50.998;6.250;2023-04-12T05:00:40;8.30;99.90
16666;DHT22;8446;50.998;6.250;2023-04-12T05:03:09;8.30;99.90
16666;DHT22;8446;50.998;6.250;2023-04-12T05:05:36;8.30;99.90
16666;DHT22;8446;50.998;6.250;2023-04-12T05:08:03;8.30;99.90
16666;DHT22;8446;50.998;6.250;2023-04-12T05:10:32;8.30;99.90
16666;DHT22;8446;50.998;6.250;2023-04-12T05:12:58;8.30;99.90
16666;DHT22;8446;50.998;6.250;2023-04-12T05:15:25;8.30;99.90
16666;DHT22;8446;50.998;6.250;2023-04-12T05:17:52;8.30;99.90
16666;DHT22;8446;50.998;6.250;2023-04-12T05:20:19;8.30;99.90
16666;DHT22;8446;50.998;6.250;2023-04-12T05:22:45;8.30;99.90
16666;DHT22;8446;50.998;6.250;2023-04-12T05:25:12;8.30;99.90
16666;DHT22;8446;50.998;6.250;2023-04-12T05:27:41;8.30;99.90
16666;DHT22;8446;50.998;6.250;2023-04-12T05:30:08;8.30;99.90
16666;DHT22;8446;50.998;6.250;2023-04-12T05:32:35;8.30;99.90
16666;DHT22;8446;50.998;6.250;2023-04-12T05:35:02;8.40;99.90
16666;DHT22;8446;50.998;6.250;2023-04-12T05:37:29;8.40;99.90
16666;DHT22;8446;50.998;6.250;2023-04-12T05:39:56;8.40;99.90
16666;DHT22;8446;50.998;6.250;2023-04-12T05:42:23;8.40;99.90
16666;DHT22;8446;50.998;6.250;2023-04-12T05:44:51;8.40;99.90
16666;DHT22;8446;50.998;6.250;2023-04-12T05:47:20;8.40;99.90
16666;DHT22;8446;50.998;6.250;2023-04-12T05:49:47;8.40;99.90
16666;DHT22;8446;50.998;6.250;2023-04-12T05:52:13;8.40;99.90
16666;DHT22;8446;50.998;6.250;2023-04-12T05:54:41;8.50;99.90
16666;DHT22;8446;50.998;6.250;2023-04-12T05:57:07;8.40;99.90
16666;DHT22;8446;50.998;6.250;2023-04-12T05:59:35;8.40;99.90
16666;DHT22;8446;50.998;6.250;2023-04-12T06:02:03;8.40;99.90
16666;DHT22;8446;50.998;6.250;2023-04-12T06:04:31;8.50;99.90
16666;DHT22;8446;50.998;6.250;2023-04-12T06:06:57;8.50;99.90
16666;DHT22;8446;50.998;6.250;2023-04-12T06:09:24;8.50;99.90
16666;DHT22;8446;50.998;6.250;2023-04-12T06:11:51;8.60;99.90
16666;DHT22;8446;50.998;6.250;2023-04-12T06:14:18;8.60;99.90
16666;DHT22;8446;50.998;6.250;2023-04-12T06:16:45;8.60;99.90
16666;DHT22;8446;50.998;6.250;2023-04-12T06:19:13;8.70;99.90
16666;DHT22;8446;50.998;6.250;2023-04-12T06:21:40;8.60;99.90
16666;DHT22;8446;50.998;6.250;2023-04-12T06:24:07;8.70;99.90
16666;DHT22;8446;50.998;6.250;2023-04-12T06:26:34;8.70;99.90
16666;DHT22;8446;50.998;6.250;2023-04-12T06:29:01;8.70;99.90
16666;DHT22;8446;50.998;6.250;2023-04-12T06:31:27;8.70;99.90
16666;DHT22;8446;50.998;6.250;2023-04-12T06:33:54;8.80;99.90
16666;DHT22;8446;50.998;6.250;2023-04-12T06:36:22;8.80;99.90
16666;DHT22;8446;50.998;6.250;2023-04-12T06:38:49;8.90;99.90
16666;DHT22;8446;50.998;6.250;2023-04-12T06:41:16;8.90;99.90
16666;DHT22;8446;50.998;6.250;2023-04-12T06:43:43;9.00;99.90
16666;DHT22;8446;50.998;6.250;2023-04-12T06:46:10;8.90;99.90
16666;DHT22;8446;50.998;6.250;2023-04-12T06:48:36;9.00;99.90
16666;DHT22;8446;50.998;6.250;2023-04-12T06:51:03;9.20;99.90
16666;DHT22;8446;50.998;6.250;2023-04-12T06:53:32;9.20;99.90
16666;DHT22;8446;50.998;6.250;2023-04-12T06:56:02;9.20;99.90
16666;DHT22;8446;50.998;6.250;2023-04-12T06:58:29;9.40;99.90
16666;DHT22;8446;50.998;6.250;2023-04-12T07:01:03;9.40;99.90
16666;DHT22;8446;50.998;6.250;2023-04-12T07:03:30;9.40;99.90
16666;DHT22;8446;50.998;6.250;2023-04-12T07:05:57;9.40;99.90
16666;DHT22;8446;50.998;6.250;2023-04-12T07:08:26;9.40;99.90
16666;DHT22;8446;50.998;6.250;2023-04-12T07:10:55;9.40;99.90
16666;DHT22;8446;50.998;6.250;2023-04-12T07:13:21;9.30;99.90
16666;DHT22;8446;50.998;6.250;2023-04-12T07:15:49;9.30;99.90
16666;DHT22;8446;50.998;6.250;2023-04-12T07:18:16;9.40;99.90
16666;DHT22;8446;50.998;6.250;2023-04-12T07:20:45;9.50;99.90
16666;DHT22;8446;50.998;6.250;2023-04-12T07:23:12;9.50;99.90
16666;DHT22;8446;50.998;6.250;2023-04-12T07:25:39;9.40;99.90
16666;DHT22;8446;50.998;6.250;2023-04-12T07:28:08;9.40;99.90
16666;DHT22;8446;50.998;6.250;2023-04-12T07:30:35;9.50;99.90
16666;DHT22;8446;50.998;6.250;2023-04-12T07:33:01;9.50;99.90
16666;DHT22;8446;50.998;6.250;2023-04-12T07:35:30;9.60;99.90
16666;DHT22;8446;50.998;6.250;2023-04-12T07:37:56;9.60;99.90
16666;DHT22;8446;50.998;6.250;2023-04-12T07:40:23;9.50;99.90
16666;DHT22;8446;50.998;6.250;2023-04-12T07:42:50;9.50;99.90
16666;DHT22;8446;50.998;6.250;2023-04-12T07:45:19;9.60;99.90
16666;DHT22;8446;50.998;6.250;2023-04-12T07:47:46;9.60;99.90
16666;DHT22;8446;50.998;6.250;2023-04-12T07:50:12;9.70;99.90
16666;DHT22;8446;50.998;6.250;2023-04-12T07:52:39;9.70;99.90
16666;DHT22;8446;50.998;6.250;2023-04-12T07:55:07;9.70;99.90
16666;DHT22;8446;50.998;6.250;2023-04-12T07:57:34;9.80;99.90
16666;DHT22;8446;50.998;6.250;2023-04-12T08:00:01;9.80;99.90
16666;DHT22;8446;50.998;6.250;2023-04-12T08:02:31;9.80;99.90
16666;DHT22;8446;50.998;6.250;2023-04-12T08:04:58;9.90;99.90
16666;DHT22;8446;50.998;6.250;2023-04-12T08:07:25;9.80;99.90
16666;DHT22;8446;50.998;6.250;2023-04-12T08:09:52;9.90;99.90
16666;DHT22;8446;50.998;6.250;2023-04-12T08:12:19;9.90;99.90
16666;DHT22;8446;50.998;6.250;2023-04-12T08:14:46;9.90;99.90
16666;DHT22;8446;50.998;6.250;2023-04-12T08:17:13;10.00;99.90
16666;DHT22;8446;50.998;6.250;2023-04-12T08:19:42;9.90;99.90
16666;DHT22;8446;50.998;6.250;2023-04-12T08:22:09;10.00;99.90
16666;DHT22;8446;50.998;6.250;2023-04-12T08:24:36;10.00;99.90
16666;DHT22;8446;50.998;6.250;2023-04-12T08:27:02;9.90;99.90
16666;DHT22;8446;50.998;6.250;2023-04-12T08:29:29;10.00;99.90
16666;DHT22;8446;50.998;6.250;2023-04-12T08:31:57;9.90;99.90
16666;DHT22;8446;50.998;6.250;2023-04-12T08:34:25;9.90;99.90
16666;DHT22;8446;50.998;6.250;2023-04-12T08:36:53;9.80;99.90
16666;DHT22;8446;50.998;6.250;2023-04-12T08:39:23;9.90;99.90
16666;DHT22;8446;50.998;6.250;2023-04-12T08:41:51;9.90;99.90
16666;DHT22;8446;50.998;6.250;2023-04-12T08:44:33;9.90;99.90
16666;DHT22;8446;50.998;6.250;2023-04-12T08:47:01;9.90;99.90
16666;DHT22;8446;50.998;6.250;2023-04-12T08:49:30;10.00;99.90
16666;DHT22;8446;50.998;6.250;2023-04-12T08:51:59;10.10;99.90
16666;DHT22;8446;50.998;6.250;2023-04-12T08:54:27;10.10;99.90
16666;DHT22;8446;50.998;6.250;2023-04-12T08:56:55;10.20;99.90
16666;DHT22;8446;50.998;6.250;2023-04-12T08:59:24;10.20;99.90
16666;DHT22;8446;50.998;6.250;2023-04-12T09:01:53;10.20;99.90
16666;DHT22;8446;50.998;6.250;2023-04-12T09:04:20;10.30;99.90
16666;DHT22;8446;50.998;6.250;2023-04-12T09:06:47;10.40;99.90
16666;DHT22;8446;50.998;6.250;2023-04-12T09:09:15;10.50;99.90
16666;DHT22;8446;50.998;6.250;2023-04-12T09:11:41;10.40;99.90
16666;DHT22;8446;50.998;6.250;2023-04-12T09:14:20;10.40;99.90
16666;DHT22;8446;50.998;6.250;2023-04-12T09:16:48;10.30;99.90
16666;DHT22;8446;50.998;6.250;2023-04-12T09:19:15;10.50;99.90
16666;DHT22;8446;50.998;6.250;2023-04-12T09:21:52;10.60;99.90
16666;DHT22;8446;50.998;6.250;2023-04-12T09:24:21;10.60;99.90
16666;DHT22;8446;50.998;6.250;2023-04-12T09:26:48;10.90;99.90
16666;DHT22;8446;50.998;6.250;2023-04-12T09:29:21;11.40;99.90
16666;DHT22;8446;50.998;6.250;2023-04-12T09:32:00;11.70;99.90
16666;DHT22;8446;50.998;6.250;2023-04-12T09:34:27;11.80;99.90
16666;DHT22;8446;50.998;6.250;2023-04-12T09:36:54;11.70;99.90
16666;DHT22;8446;50.998;6.250;2023-04-12T09:39:31;11.70;99.90
16666;DHT22;8446;50.998;6.250;2023-04-12T09:42:05;11.80;99.90
16666;DHT22;8446;50.998;6.250;2023-04-12T09:44:32;11.80;99.90
16666;DHT22;8446;50.998;6.250;2023-04-12T09:46:59;11.90;99.90
16666;DHT22;8446;50.998;6.250;2023-04-12T09:49:37;12.00;99.90
16666;DHT22;8446;50.998;6.250;2023-04-12T09:52:05;12.10;99.90
16666;DHT22;8446;50.998;6.250;2023-04-12T09:54:36;12.20;99.90
16666;DHT22;8446;50.998;6.250;2023-04-12T09:57:05;12.00;99.90
16666;DHT22;8446;50.998;6.250;2023-04-12T09:59:35;11.80;99.90
16666;DHT22;8446;50.998;6.250;2023-04-12T10:02:08;11.50;99.90
16666;DHT22;8446;50.998;6.250;2023-04-12T10:04:38;11.30;99.90
16666;DHT22;8446;50.998;6.250;2023-04-12T10:07:05;11.10;99.90
16666;DHT22;8446;50.998;6.250;2023-04-12T10:09:36;11.10;99.90
16666;DHT22;8446;50.998;6.250;2023-04-12T10:12:04;11.00;99.90
16666;DHT22;8446;50.998;6.250;2023-04-12T10:14:31;10.90;99.90
16666;DHT22;8446;50.998;6.250;2023-04-12T10:16:59;10.90;99.90
16666;DHT22;8446;50.998;6.250;2023-04-12T10:19:28;10.80;99.90
16666;DHT22;8446;50.998;6.250;2023-04-12T10:21:55;10.80;99.90
16666;DHT22;8446;50.998;6.250;2023-04-12T10:24:23;10.90;99.90
16666;DHT22;8446;50.998;6.250;2023-04-12T10:26:52;11.10;99.90
16666;DHT22;8446;50.998;6.250;2023-04-12T10:29:27;11.10;99.90
16666;DHT22;8446;50.998;6.250;2023-04-12T10:31:56;11.10;99.90
16666;DHT22;8446;50.998;6.250;2023-04-12T10:34:25;11.10;99.90
16666;DHT22;8446;50.998;6.250;2023-04-12T10:36:54;11.20;99.90
16666;DHT22;8446;50.998;6.250;2023-04-12T10:39:42;11.40;99.90
16666;DHT22;8446;50.998;6.250;2023-04-12T10:42:21;11.60;99.90
16666;DHT22;8446;50.998;6.250;2023-04-12T10:44:49;11.70;99.90
16666;DHT22;8446;50.998;6.250;2023-04-12T10:50:21;12.00;99.90
16666;DHT22;8446;50.998;6.250;2023-04-12T10:53:21;12.20;99.90
16666;DHT22;8446;50.998;6.250;2023-04-12T10:55:50;12.40;99.90
16666;DHT22;8446;50.998;6.250;2023-04-12T10:58:58;12.50;99.90
16666;DHT22;8446;50.998;6.250;2023-04-12T11:01:25;12.70;99.90
16666;DHT22;8446;50.998;6.250;2023-04-12T11:04:15;12.80;99.90
16666;DHT22;8446;50.998;6.250;2023-04-12T11:06:47;13.00;99.90
16666;DHT22;8446;50.998;6.250;2023-04-12T11:09:21;13.10;99.90
16666;DHT22;8446;50.998;6.250;2023-04-12T11:11:48;13.30;99.90
16666;DHT22;8446;50.998;6.250;2023-04-12T11:14:17;13.40;99.90
16666;DHT22;8446;50.998;6.250;2023-04-12T11:17:23;13.70;99.90
16666;DHT22;8446;50.998;6.250;2023-04-12T11:19:53;13.80;99.90
16666;DHT22;8446;50.998;6.250;2023-04-12T11:22:23;13.80;99.90
16666;DHT22;8446;50.998;6.250;2023-04-12T11:24:51;13.70;99.90
16666;DHT22;8446;50.998;6.250;2023-04-12T11:27:19;14.00;99.90
16666;DHT22;8446;50.998;6.250;2023-04-12T11:29:49;14.00;99.90
16666;DHT22;8446;50.998;6.250;2023-04-12T11:32:17;14.00;99.90
16666;DHT22;8446;50.998;6.250;2023-04-12T11:34:45;13.70;99.90
16666;DHT22;8446;50.998;6.250;2023-04-12T11:37:12;13.70;99.90
16666;DHT22;8446;50.998;6.250;2023-04-12T11:39:41;13.40;99.90
16666;DHT22;8446;50.998;6.250;2023-04-12T11:42:12;13.30;99.90
16666;DHT22;8446;50.998;6.250;2023-04-12T11:44:41;13.10;99.90
16666;DHT22;8446;50.998;6.250;2023-04-12T11:47:20;13.00;99.90
16666;DHT22;8446;50.998;6.250;2023-04-12T11:49:50;12.80;99.90
16666;DHT22;8446;50.998;6.250;2023-04-12T11:52:17;12.90;99.90
16666;DHT22;8446;50.998;6.250;2023-04-12T11:54:45;13.00;99.90
16666;DHT22;8446;50.998;6.250;2023-04-12T11:57:14;13.10;99.90
16666;DHT22;8446;50.998;6.250;2023-04-12T11:59:43;13.20;99.90
16666;DHT22;8446;50.998;6.250;2023-04-12T12:02:11;13.30;99.90
16666;DHT22;8446;50.998;6.250;2023-04-12T12:04:42;13.30;99.90
16666;DHT22;8446;50.998;6.250;2023-04-12T12:07:11;13.50;99.90
16666;DHT22;8446;50.998;6.250;2023-04-12T12:09:39;13.40;99.90
16666;DHT22;8446;50.998;6.250;2023-04-12T12:12:06;13.40;99.90
16666;DHT22;8446;50.998;6.250;2023-04-12T12:14:34;13.60;99.90
16666;DHT22;8446;50.998;6.250;2023-04-12T12:17:07;13.60;99.90
16666;DHT22;8446;50.998;6.250;2023-04-12T12:19:36;13.70;99.90
16666;DHT22;8446;50.998;6.250;2023-04-12T12:22:12;14.00;99.90
16666;DHT22;8446;50.998;6.250;2023-04-12T12:24:44;14.50;99.90
16666;DHT22;8446;50.998;6.250;2023-04-12T12:27:12;15.00;99.90
16666;DHT22;8446;50.998;6.250;2023-04-12T12:29:39;15.00;99.90
16666;DHT22;8446;50.998;6.250;2023-04-12T12:32:10;15.00;99.90
16666;DHT22;8446;50.998;6.250;2023-04-12T12:34:39;15.50;99.90
16666;DHT22;8446;50.998;6.250;2023-04-12T12:37:13;15.30;99.90
16666;DHT22;8446;50.998;6.250;2023-04-12T12:40:03;15.20;99.90
16666;DHT22;8446;50.998;6.250;2023-04-12T12:42:36;14.60;99.90
16666;DHT22;8446;50.998;6.250;2023-04-12T12:45:04;14.20;99.90
16666;DHT22;8446;50.998;6.250;2023-04-12T12:47:32;13.90;99.90
16666;DHT22;8446;50.998;6.250;2023-04-12T12:49:58;13.50;99.90
16666;DHT22;8446;50.998;6.250;2023-04-12T12:52:27;13.70;99.90
16666;DHT22;8446;50.998;6.250;2023-04-12T12:54:53;13.90;99.90
16666;DHT22;8446;50.998;6.250;2023-04-12T12:57:20;13.90;99.90
16666;DHT22;8446;50.998;6.250;2023-04-12T12:59:47;13.80;99.90
16666;DHT22;8446;50.998;6.250;2023-04-12T13:02:14;14.00;99.90
16666;DHT22;8446;50.998;6.250;2023-04-12T13:04:42;14.10;99.90
16666;DHT22;8446;50.998;6.250;2023-04-12T13:07:09;14.40;99.90
16666;DHT22;8446;50.998;6.250;2023-04-12T13:09:37;14.90;99.90
16666;DHT22;8446;50.998;6.250;2023-04-12T13:12:04;15.00;99.90
16666;DHT22;8446;50.998;6.250;2023-04-12T13:14:31;14.80;99.90
16666;DHT22;8446;50.998;6.250;2023-04-12T13:16:57;14.30;99.90
16666;DHT22;8446;50.998;6.250;2023-04-12T13:19:24;13.50;99.90
16666;DHT22;8446;50.998;6.250;2023-04-12T13:21:51;12.70;99.90
16666;DHT22;8446;50.998;6.250;2023-04-12T13:24:18;12.30;99.90
16666;DHT22;8446;50.998;6.250;2023-04-12T13:26:46;11.90;99.90
16666;DHT22;8446;50.998;6.250;2023-04-12T13:29:13;11.60;99.90
16666;DHT22;8446;50.998;6.250;2023-04-12T13:31:40;11.40;99.90
16666;DHT22;8446;50.998;6.250;2023-04-12T13:34:06;11.20;99.90
16666;DHT22;8446;50.998;6.250;2023-04-12T13:36:33;10.90;99.90
16666;DHT22;8446;50.998;6.250;2023-04-12T13:39:00;10.50;99.90
16666;DHT22;8446;50.998;6.250;2023-04-12T13:41:27;10.40;99.90
16666;DHT22;8446;50.998;6.250;2023-04-12T13:43:57;10.30;99.90
16666;DHT22;8446;50.998;6.250;2023-04-12T13:46:23;10.40;99.90
16666;DHT22;8446;50.998;6.250;2023-04-12T13:48:50;10.50;99.90
16666;DHT22;8446;50.998;6.250;2023-04-12T13:51:17;10.70;99.90
16666;DHT22;8446;50.998;6.250;2023-04-12T13:53:44;11.40;99.90
16666;DHT22;8446;50.998;6.250;2023-04-12T13:56:11;12.30;99.90
16666;DHT22;8446;50.998;6.250;2023-04-12T13:58:37;12.80;99.90
16666;DHT22;8446;50.998;6.250;2023-04-12T14:01:06;13.30;99.90
16666;DHT22;8446;50.998;6.250;2023-04-12T14:03:34;13.40;99.90
16666;DHT22;8446;50.998;6.250;2023-04-12T14:06:01;13.10;99.90
16666;DHT22;8446;50.998;6.250;2023-04-12T14:08:28;12.80;99.90
16666;DHT22;8446;50.998;6.250;2023-04-12T14:10:55;12.50;99.90
16666;DHT22;8446;50.998;6.250;2023-04-12T14:13:22;12.20;99.90
16666;DHT22;8446;50.998;6.250;2023-04-12T14:15:49;12.30;99.90
16666;DHT22;8446;50.998;6.250;2023-04-12T14:18:18;12.70;99.90
16666;DHT22;8446;50.998;6.250;2023-04-12T14:20:50;13.80;99.90
16666;DHT22;8446;50.998;6.250;2023-04-12T14:23:19;15.00;99.90
16666;DHT22;8446;50.998;6.250;2023-04-12T14:25:46;15.90;99.90
16666;DHT22;8446;50.998;6.250;2023-04-12T14:28:12;15.70;99.90
16666;DHT22;8446;50.998;6.250;2023-04-12T14:30:41;16.10;99.90
16666;DHT22;8446;50.998;6.250;2023-04-12T14:33:08;15.80;99.90
16666;DHT22;8446;50.998;6.250;2023-04-12T14:35:37;15.10;99.90
16666;DHT22;8446;50.998;6.250;2023-04-12T14:38:04;14.90;99.90
16666;DHT22;8446;50.998;6.250;2023-04-12T14:40:30;14.40;99.90
16666;DHT22;8446;50.998;6.250;2023-04-12T14:42:57;13.90;99.90
16666;DHT22;8446;50.998;6.250;2023-04-12T14:45:24;13.90;99.90
16666;DHT22;8446;50.998;6.250;2023-04-12T14:47:51;13.90;99.90
16666;DHT22;8446;50.998;6.250;2023-04-12T14:50:18;14.40;99.90
16666;DHT22;8446;50.998;6.250;2023-04-12T14:52:47;14.80;99.90
16666;DHT22;8446;50.998;6.250;2023-04-12T14:55:13;15.80;99.90
16666;DHT22;8446;50.998;6.250;2023-04-12T14:57:41;16.20;99.90
16666;DHT22;8446;50.998;6.250;2023-04-12T15:00:09;16.60;99.90
16666;DHT22;8446;50.998;6.250;2023-04-12T15:02:40;16.40;99.90
16666;DHT22;8446;50.998;6.250;2023-04-12T15:05:08;17.10;99.90
16666;DHT22;8446;50.998;6.250;2023-04-12T15:07:36;17.40;99.90
16666;DHT22;8446;50.998;6.250;2023-04-12T15:10:05;17.90;99.90
16666;DHT22;8446;50.998;6.250;2023-04-12T15:12:32;17.70;99.90
16666;DHT22;8446;50.998;6.250;2023-04-12T15:14:59;17.70;99.90
16666;DHT22;8446;50.998;6.250;2023-04-12T15:17:27;17.20;99.90
16666;DHT22;8446;50.998;6.250;2023-04-12T15:19:55;16.30;99.90
16666;DHT22;8446;50.998;6.250;2023-04-12T15:22:23;15.00;99.90
16666;DHT22;8446;50.998;6.250;2023-04-12T15:24:50;14.50;99.90
16666;DHT22;8446;50.998;6.250;2023-04-12T15:27:18;13.70;99.90
16666;DHT22;8446;50.998;6.250;2023-04-12T15:29:45;13.10;99.90
16666;DHT22;8446;50.998;6.250;2023-04-12T15:32:12;12.90;99.90
16666;DHT22;8446;50.998;6.250;2023-04-12T15:34:39;12.20;99.90
16666;DHT22;8446;50.998;6.250;2023-04-12T15:37:05;12.00;99.90
16666;DHT22;8446;50.998;6.250;2023-04-12T15:39:32;11.80;99.90
16666;DHT22;8446;50.998;6.250;2023-04-12T15:42:00;11.80;99.90
16666;DHT22;8446;50.998;6.250;2023-04-12T15:44:28;11.40;99.90
16666;DHT22;8446;50.998;6.250;2023-04-12T15:46:56;11.20;99.90
16666;DHT22;8446;50.998;6.250;2023-04-12T15:49:23;10.90;99.90
16666;DHT22;8446;50.998;6.250;2023-04-12T15:51:50;10.70;99.90
16666;DHT22;8446;50.998;6.250;2023-04-12T15:54:17;10.60;99.90
16666;DHT22;8446;50.998;6.250;2023-04-12T15:56:44;10.70;99.90
16666;DHT22;8446;50.998;6.250;2023-04-12T15:59:10;10.90;99.90
16666;DHT22;8446;50.998;6.250;2023-04-12T16:01:38;11.70;99.90
16666;DHT22;8446;50.998;6.250;2023-04-12T16:04:06;12.70;99.90
16666;DHT22;8446;50.998;6.250;2023-04-12T16:06:33;13.50;99.90